sensor_id;sensor_type;location;lat;lon;timestamp;temperature;humidity
480;DHT22;226;48.606;9.096;2023-12-20T00:02:18;7.10;44.60
480;DHT22;226;48.606;9.096;2023-12-20T00:04:46;7.00;45.20
480;DHT22;226;48.606;9.096;2023-12-20T00:07:15;7.00;44.50
480;DHT22;226;48.606;9.096;2023-12-20T00:09:44;7.10;45.30
480;DHT22;226;48.606;9.096;2023-12-20T00:12:12;7.10;45.80
480;DHT22;226;48.606;9.096;2023-12-20T00:14:40;7.40;48.30
480;DHT22;226;48.606;9.096;2023-12-20T00:17:10;7.10;47.00
480;DHT22;226;48.606;9.096;2023-12-20T00:19:38;7.60;47.00
480;DHT22;226;48.606;9.096;2023-12-20T00:22:06;7.30;47.10
480;DHT22;226;48.606;9.096;2023-12-20T00:24:35;7.30;46.70
480;DHT22;226;48.606;9.096;2023-12-20T00:27:03;7.20;46.10
480;DHT22;226;48.606;9.096;2023-12-20T00:29:31;7.10;45.40
480;DHT22;226;48.606;9.096;2023-12-20T00:31:59;7.10;47.00
480;DHT22;226;48.606;9.096;2023-12-20T00:34:29;7.40;47.00
480;DHT22;226;48.606;9.096;2023-12-20T00:36:57;7.30;46.80
480;DHT22;226;48.606;9.096;2023-12-20T00:39:25;7.70;46.30
480;DHT22;226;48.606;9.096;2023-12-20T00:41:53;7.10;47.10
480;DHT22;226;48.606;9.096;2023-12-20T00:44:22;7.40;46.70
480;DHT22;226;48.606;9.096;2023-12-20T00:46:50;7.40;45.90
480;DHT22;226;48.606;9.096;2023-12-20T00:49:18;7.20;46.20
480;DHT22;226;48.606;9.096;2023-12-20T00:51:48;7.20;49.40
480;DHT22;226;48.606;9.096;2023-12-20T00:54:17;7.80;50.40
480;DHT22;226;48.606;9.096;2023-12-20T00:56:45;7.30;50.30
480;DHT22;226;48.606;9.096;2023-12-20T00:59:13;7.30;49.30
480;DHT22;226;48.606;9.096;2023-12-20T01:01:42;7.30;49.50
480;DHT22;226;48.606;9.096;2023-12-20T01:04:10;7.20;49.00
480;DHT22;226;48.606;9.096;2023-12-20T01:06:38;7.60;51.10
480;DHT22;226;48.606;9.096;2023-12-20T01:09:08;7.20;53.60
480;DHT22;226;48.606;9.096;2023-12-20T01:11:36;7.00;55.20
480;DHT22;226;48.606;9.096;2023-12-20T01:14:05;6.90;54.20
480;DHT22;226;48.606;9.096;2023-12-20T01:16:33;6.90;55.80
480;DHT22;226;48.606;9.096;2023-12-20T01:19:01;7.10;57.50
480;DHT22;226;48.606;9.096;2023-12-20T01:21:29;7.20;57.80
480;DHT22;226;48.606;9.096;2023-12-20T01:23:58;6.90;59.30
480;DHT22;226;48.606;9.096;2023-12-20T01:26:27;6.60;62.60
480;DHT22;226;48.606;9.096;2023-12-20T01:28:55;6.30;65.80
480;DHT22;226;48.606;9.096;2023-12-20T01:31:24;6.50;69.20
480;DHT22;226;48.606;9.096;2023-12-20T01:33:54;6.30;72.20
480;DHT22;226;48.606;9.096;2023-12-20T01:36:22;6.70;72.40
480;DHT22;226;48.606;9.096;2023-12-20T01:38:51;6.10;74.30
480;DHT22;226;48.606;9.096;2023-12-20T01:41:19;6.50;76.30
480;DHT22;226;48.606;9.096;2023-12-20T01:43:48;6.10;77.30
480;DHT22;226;48.606;9.096;2023-12-20T01:46:19;6.10;78.10
480;DHT22;226;48.606;9.096;2023-12-20T01:48:48;6.50;79.60
480;DHT22;226;48.606;9.096;2023-12-20T01:51:17;6.00;79.20
480;DHT22;226;48.606;9.096;2023-12-20T01:53:45;6.10;80.40
480;DHT22;226;48.606;9.096;2023-12-20T01:56:15;6.10;80.40
480;DHT22;226;48.606;9.096;2023-12-20T01:58:45;6.10;80.40
480;DHT22;226;48.606;9.096;2023-12-20T02:01:15;6.10;81.10
480;DHT22;226;48.606;9.096;2023-12-20T02:03:45;6.10;82.00
480;DHT22;226;48.606;9.096;2023-12-20T02:06:14;6.50;80.20
480;DHT22;226;48.606;9.096;2023-12-20T02:08:42;6.10;80.40
480;DHT22;226;48.606;9.096;2023-12-20T02:11:10;6.20;81.10
480;DHT22;226;48.606;9.096;2023-12-20T02:13:39;6.70;81.60
480;DHT22;226;48.606;9.096;2023-12-20T02:16:07;6.50;81.00
480;DHT22;226;48.606;9.096;2023-12-20T02:18:37;6.20;80.80
480;DHT22;226;48.606;9.096;2023-12-20T02:21:05;6.20;79.80
480;DHT22;226;48.606;9.096;2023-12-20T02:23:35;6.20;80.20
480;DHT22;226;48.606;9.096;2023-12-20T02:26:04;6.10;80.90
480;DHT22;226;48.606;9.096;2023-12-20T02:28:33;6.30;81.50
480;DHT22;226;48.606;9.096;2023-12-20T02:31:02;6.10;81.30
480;DHT22;226;48.606;9.096;2023-12-20T02:33:31;6.20;81.20
480;DHT22;226;48.606;9.096;2023-12-20T02:35:59;6.30;81.10
480;DHT22;226;48.606;9.096;2023-12-20T02:38:27;6.20;80.30
480;DHT22;226;48.606;9.096;2023-12-20T02:40:57;6.40;79.40
480;DHT22;226;48.606;9.096;2023-12-20T02:43:25;6.20;79.50
480;DHT22;226;48.606;9.096;2023-12-20T02:45:53;6.10;79.80
480;DHT22;226;48.606;9.096;2023-12-20T02:48:22;6.80;80.70
480;DHT22;226;48.606;9.096;2023-12-20T02:50:50;6.20;79.70
480;DHT22;226;48.606;9.096;2023-12-20T02:53:19;6.10;80.00
480;DHT22;226;48.606;9.096;2023-12-20T02:55:47;6.10;80.80
480;DHT22;226;48.606;9.096;2023-12-20T02:58:16;6.30;80.40
480;DHT22;226;48.606;9.096;2023-12-20T03:00:45;6.10;80.30
480;DHT22;226;48.606;9.096;2023-12-20T03:03:14;6.20;80.30
480;DHT22;226;48.606;9.096;2023-12-20T03:05:42;6.20;79.40
480;DHT22;226;48.606;9.096;2023-12-20T03:08:10;6.20;78.90
480;DHT22;226;48.606;9.096;2023-12-20T03:10:38;6.10;78.60
480;DHT22;226;48.606;9.096;2023-12-20T03:13:07;6.40;79.00
480;DHT22;226;48.606;9.096;2023-12-20T03:15:36;6.30;79.00
480;DHT22;226;48.606;9.096;2023-12-20T03:18:05;6.20;79.00
480;DHT22;226;48.606;9.096;2023-12-20T03:20:33;6.20;78.40
480;DHT22;226;48.606;9.096;2023-12-20T03:23:01;6.30;79.30
480;DHT22;226;48.606;9.096;2023-12-20T03:25:30;6.20;79.50
480;DHT22;226;48.606;9.096;2023-12-20T03:27:58;6.10;79.30
480;DHT22;226;48.606;9.096;2023-12-20T03:30:27;6.70;80.30
480;DHT22;226;48.606;9.096;2023-12-20T03:32:56;6.40;79.20
480;DHT22;226;48.606;9.096;2023-12-20T03:35:25;6.30;77.90
480;DHT22;226;48.606;9.096;2023-12-20T03:37:53;6.80;77.20
480;DHT22;226;48.606;9.096;2023-12-20T03:40:21;6.30;77.40
480;DHT22;226;48.606;9.096;2023-12-20T03:42:49;6.40;79.00
480;DHT22;226;48.606;9.096;2023-12-20T03:45:18;6.40;78.70
480;DHT22;226;48.606;9.096;2023-12-20T03:47:46;6.50;77.90
480;DHT22;226;48.606;9.096;2023-12-20T03:50:16;6.30;78.30
480;DHT22;226;48.606;9.096;2023-12-20T03:52:45;6.10;78.60
480;DHT22;226;48.606;9.096;2023-12-20T03:55:13;6.40;80.80
480;DHT22;226;48.606;9.096;2023-12-20T03:57:41;6.10;79.70
480;DHT22;226;48.606;9.096;2023-12-20T04:00:17;6.00;80.10
480;DHT22;226;48.606;9.096;2023-12-20T04:02:45;6.00;79.50
480;DHT22;226;48.606;9.096;2023-12-20T04:05:14;6.30;80.40
480;DHT22;226;48.606;9.096;2023-12-20T04:07:43;6.00;79.80
480;DHT22;226;48.606;9.096;2023-12-20T04:10:11;6.00;78.80
480;DHT22;226;48.606;9.096;2023-12-20T04:12:40;6.10;79.80
480;DHT22;226;48.606;9.096;2023-12-20T04:15:09;6.70;79.70
480;DHT22;226;48.606;9.096;2023-12-20T04:17:38;5.90;80.00
480;DHT22;226;48.606;9.096;2023-12-20T04:20:08;6.00;81.30
480;DHT22;226;48.606;9.096;2023-12-20T04:22:36;5.90;80.30
480;DHT22;226;48.606;9.096;2023-12-20T04:25:07;5.90;80.50
480;DHT22;226;48.606;9.096;2023-12-20T04:27:35;5.90;80.40
480;DHT22;226;48.606;9.096;2023-12-20T04:30:04;5.90;80.00
480;DHT22;226;48.606;9.096;2023-12-20T04:32:32;5.80;79.50
480;DHT22;226;48.606;9.096;2023-12-20T04:35:01;6.30;80.90
480;DHT22;226;48.606;9.096;2023-12-20T04:37:29;5.70;81.20
480;DHT22;226;48.606;9.096;2023-12-20T04:39:57;5.90;82.40
480;DHT22;226;48.606;9.096;2023-12-20T04:42:27;6.00;80.60
480;DHT22;226;48.606;9.096;2023-12-20T04:44:55;5.70;79.40
480;DHT22;226;48.606;9.096;2023-12-20T04:47:23;5.70;79.80
480;DHT22;226;48.606;9.096;2023-12-20T04:49:51;5.70;80.50
480;DHT22;226;48.606;9.096;2023-12-20T04:52:20;5.70;79.20
480;DHT22;226;48.606;9.096;2023-12-20T04:54:48;5.60;79.90
480;DHT22;226;48.606;9.096;2023-12-20T04:57:17;5.90;80.20
480;DHT22;226;48.606;9.096;2023-12-20T04:59:46;4.60;79.10
480;DHT22;226;48.606;9.096;2023-12-20T05:02:15;5.70;79.70
480;DHT22;226;48.606;9.096;2023-12-20T05:04:42;5.70;80.40
480;DHT22;226;48.606;9.096;2023-12-20T05:07:10;5.70;80.70
480;DHT22;226;48.606;9.096;2023-12-20T05:09:39;5.60;78.00
480;DHT22;226;48.606;9.096;2023-12-20T05:12:07;5.70;78.80
480;DHT22;226;48.606;9.096;2023-12-20T05:14:36;5.60;78.60
480;DHT22;226;48.606;9.096;2023-12-20T05:17:06;5.60;74.80
480;DHT22;226;48.606;9.096;2023-12-20T05:19:34;5.90;73.80
480;DHT22;226;48.606;9.096;2023-12-20T05:22:03;5.70;73.40
480;DHT22;226;48.606;9.096;2023-12-20T05:24:31;5.50;74.30
480;DHT22;226;48.606;9.096;2023-12-20T05:27:00;5.50;76.20
480;DHT22;226;48.606;9.096;2023-12-20T05:29:28;5.40;77.00
480;DHT22;226;48.606;9.096;2023-12-20T05:31:58;5.50;77.20
480;DHT22;226;48.606;9.096;2023-12-20T05:34:27;5.60;76.40
480;DHT22;226;48.606;9.096;2023-12-20T05:36:57;5.40;75.90
480;DHT22;226;48.606;9.096;2023-12-20T05:39:25;5.40;74.90
480;DHT22;226;48.606;9.096;2023-12-20T05:41:53;5.40;75.30
480;DHT22;226;48.606;9.096;2023-12-20T05:44:21;5.50;73.50
480;DHT22;226;48.606;9.096;2023-12-20T05:46:50;5.80;73.70
480;DHT22;226;48.606;9.096;2023-12-20T05:49:18;5.40;72.20
480;DHT22;226;48.606;9.096;2023-12-20T05:51:48;5.80;72.50
480;DHT22;226;48.606;9.096;2023-12-20T05:54:17;5.80;73.70
480;DHT22;226;48.606;9.096;2023-12-20T05:56:45;5.40;73.70
480;DHT22;226;48.606;9.096;2023-12-20T05:59:13;5.80;74.60
480;DHT22;226;48.606;9.096;2023-12-20T06:01:41;5.50;74.30
480;DHT22;226;48.606;9.096;2023-12-20T06:04:10;5.80;76.10
480;DHT22;226;48.606;9.096;2023-12-20T06:06:41;5.20;75.30
480;DHT22;226;48.606;9.096;2023-12-20T06:09:11;5.40;76.50
480;DHT22;226;48.606;9.096;2023-12-20T06:11:39;5.40;76.60
480;DHT22;226;48.606;9.096;2023-12-20T06:14:08;5.90;78.30
480;DHT22;226;48.606;9.096;2023-12-20T06:16:36;5.50;76.60
480;DHT22;226;48.606;9.096;2023-12-20T06:19:04;5.40;75.70
480;DHT22;226;48.606;9.096;2023-12-20T06:21:32;5.50;74.50
480;DHT22;226;48.606;9.096;2023-12-20T06:24:01;5.50;75.60
480;DHT22;226;48.606;9.096;2023-12-20T06:26:30;5.50;75.50
480;DHT22;226;48.606;9.096;2023-12-20T06:28:59;5.50;76.00
480;DHT22;226;48.606;9.096;2023-12-20T06:31:27;5.50;74.80
480;DHT22;226;48.606;9.096;2023-12-20T06:33:56;5.50;74.10
480;DHT22;226;48.606;9.096;2023-12-20T06:36:27;5.60;72.90
480;DHT22;226;48.606;9.096;2023-12-20T06:38:55;5.50;74.20
480;DHT22;226;48.606;9.096;2023-12-20T06:41:23;5.50;73.20
480;DHT22;226;48.606;9.096;2023-12-20T06:43:53;5.50;73.60
480;DHT22;226;48.606;9.096;2023-12-20T06:46:21;5.50;74.90
480;DHT22;226;48.606;9.096;2023-12-20T06:48:50;5.30;74.50
480;DHT22;226;48.606;9.096;2023-12-20T06:51:18;5.80;76.10
480;DHT22;226;48.606;9.096;2023-12-20T06:53:47;5.60;75.10
480;DHT22;226;48.606;9.096;2023-12-20T06:56:15;5.60;74.60
480;DHT22;226;48.606;9.096;2023-12-20T06:58:46;5.70;73.80
480;DHT22;226;48.606;9.096;2023-12-20T07:01:16;6.00;73.50
480;DHT22;226;48.606;9.096;2023-12-20T07:03:45;5.70;72.90
480;DHT22;226;48.606;9.096;2023-12-20T07:06:13;6.00;72.60
480;DHT22;226;48.606;9.096;2023-12-20T07:08:43;5.70;71.30
480;DHT22;226;48.606;9.096;2023-12-20T07:11:12;5.80;71.60
480;DHT22;226;48.606;9.096;2023-12-20T07:13:40;5.70;71.60
480;DHT22;226;48.606;9.096;2023-12-20T07:16:08;5.60;72.00
480;DHT22;226;48.606;9.096;2023-12-20T07:18:38;5.20;72.20
480;DHT22;226;48.606;9.096;2023-12-20T07:21:06;5.70;72.60
480;DHT22;226;48.606;9.096;2023-12-20T07:23:35;5.80;72.30
480;DHT22;226;48.606;9.096;2023-12-20T07:26:03;5.70;72.90
480;DHT22;226;48.606;9.096;2023-12-20T07:28:32;5.70;73.30
480;DHT22;226;48.606;9.096;2023-12-20T07:31:00;6.00;72.30
480;DHT22;226;48.606;9.096;2023-12-20T07:33:29;5.80;72.90
480;DHT22;226;48.606;9.096;2023-12-20T07:36:07;5.80;71.70
480;DHT22;226;48.606;9.096;2023-12-20T07:38:35;5.90;72.30
480;DHT22;226;48.606;9.096;2023-12-20T07:41:04;6.20;73.80
480;DHT22;226;48.606;9.096;2023-12-20T07:43:33;6.00;74.20
480;DHT22;226;48.606;9.096;2023-12-20T07:46:04;6.00;74.90
480;DHT22;226;48.606;9.096;2023-12-20T07:48:34;5.70;74.30
480;DHT22;226;48.606;9.096;2023-12-20T07:51:03;5.70;74.70
480;DHT22;226;48.606;9.096;2023-12-20T07:53:34;5.80;72.90
480;DHT22;226;48.606;9.096;2023-12-20T07:56:13;5.70;75.50
480;DHT22;226;48.606;9.096;2023-12-20T07:58:42;5.70;74.70
480;DHT22;226;48.606;9.096;2023-12-20T08:01:19;5.60;75.70
480;DHT22;226;48.606;9.096;2023-12-20T08:03:49;5.60;75.80
480;DHT22;226;48.606;9.096;2023-12-20T08:06:18;5.70;77.50
480;DHT22;226;48.606;9.096;2023-12-20T08:08:48;5.80;77.10
480;DHT22;226;48.606;9.096;2023-12-20T08:11:28;5.80;76.40
480;DHT22;226;48.606;9.096;2023-12-20T08:13:56;6.10;76.40
480;DHT22;226;48.606;9.096;2023-12-20T08:16:25;6.00;76.60
480;DHT22;226;48.606;9.096;2023-12-20T08:18:54;6.00;76.90
480;DHT22;226;48.606;9.096;2023-12-20T08:21:22;6.00;76.70
480;DHT22;226;48.606;9.096;2023-12-20T08:23:52;6.70;78.10
480;DHT22;226;48.606;9.096;2023-12-20T08:26:20;6.10;77.00
480;DHT22;226;48.606;9.096;2023-12-20T08:28:50;6.20;77.30
480;DHT22;226;48.606;9.096;2023-12-20T08:31:18;6.20;76.60
480;DHT22;226;48.606;9.096;2023-12-20T08:33:49;6.60;75.30
480;DHT22;226;48.606;9.096;2023-12-20T08:36:17;6.60;75.20
480;DHT22;226;48.606;9.096;2023-12-20T08:38:45;6.30;75.60
480;DHT22;226;48.606;9.096;2023-12-20T08:41:15;6.40;75.60
480;DHT22;226;48.606;9.096;2023-12-20T08:43:44;6.60;74.20
480;DHT22;226;48.606;9.096;2023-12-20T08:46:13;6.40;71.40
480;DHT22;226;48.606;9.096;2023-12-20T08:48:41;6.50;69.10
480;DHT22;226;48.606;9.096;2023-12-20T08:51:10;6.40;71.00
480;DHT22;226;48.606;9.096;2023-12-20T08:53:38;6.70;70.10
480;DHT22;226;48.606;9.096;2023-12-20T08:56:07;6.20;68.70
480;DHT22;226;48.606;9.096;2023-12-20T08:58:36;6.80;68.00
480;DHT22;226;48.606;9.096;2023-12-20T09:01:05;5.90;70.70
480;DHT22;226;48.606;9.096;2023-12-20T09:03:34;5.80;71.40
480;DHT22;226;48.606;9.096;2023-12-20T09:06:03;5.80;70.40
480;DHT22;226;48.606;9.096;2023-12-20T09:08:32;5.60;56.90
480;DHT22;226;48.606;9.096;2023-12-20T09:11:01;5.70;55.90
480;DHT22;226;48.606;9.096;2023-12-20T09:13:29;6.00;56.50
480;DHT22;226;48.606;9.096;2023-12-20T09:16:00;5.60;50.00
480;DHT22;226;48.606;9.096;2023-12-20T09:18:29;5.60;47.90
480;DHT22;226;48.606;9.096;2023-12-20T09:20:57;5.60;50.40
480;DHT22;226;48.606;9.096;2023-12-20T09:23:25;5.70;49.80
480;DHT22;226;48.606;9.096;2023-12-20T09:25:53;6.00;52.10
480;DHT22;226;48.606;9.096;2023-12-20T09:28:24;5.80;46.90
480;DHT22;226;48.606;9.096;2023-12-20T09:30:52;5.80;48.80
480;DHT22;226;48.606;9.096;2023-12-20T09:33:22;5.80;45.70
480;DHT22;226;48.606;9.096;2023-12-20T09:35:51;5.90;45.40
480;DHT22;226;48.606;9.096;2023-12-20T09:38:20;6.00;48.10
480;DHT22;226;48.606;9.096;2023-12-20T09:40:49;6.00;43.60
480;DHT22;226;48.606;9.096;2023-12-20T09:43:19;5.90;45.00
480;DHT22;226;48.606;9.096;2023-12-20T09:45:48;5.90;47.00
480;DHT22;226;48.606;9.096;2023-12-20T09:48:18;5.90;47.90
480;DHT22;226;48.606;9.096;2023-12-20T09:50:48;5.80;43.30
480;DHT22;226;48.606;9.096;2023-12-20T09:53:20;5.70;44.30
480;DHT22;226;48.606;9.096;2023-12-20T09:55:51;6.10;43.70
480;DHT22;226;48.606;9.096;2023-12-20T09:58:20;6.00;44.40
480;DHT22;226;48.606;9.096;2023-12-20T10:00:49;5.70;43.80
480;DHT22;226;48.606;9.096;2023-12-20T10:03:18;5.80;42.10
480;DHT22;226;48.606;9.096;2023-12-20T10:05:54;5.60;42.90
480;DHT22;226;48.606;9.096;2023-12-20T10:08:25;6.20;41.70
480;DHT22;226;48.606;9.096;2023-12-20T10:10:53;5.90;43.90
480;DHT22;226;48.606;9.096;2023-12-20T10:13:22;5.60;45.40
480;DHT22;226;48.606;9.096;2023-12-20T10:15:50;5.70;43.80
480;DHT22;226;48.606;9.096;2023-12-20T10:18:19;6.00;42.20
480;DHT22;226;48.606;9.096;2023-12-20T10:20:48;5.60;39.10
480;DHT22;226;48.606;9.096;2023-12-20T10:23:18;5.60;39.40
480;DHT22;226;48.606;9.096;2023-12-20T10:25:56;5.50;35.40
480;DHT22;226;48.606;9.096;2023-12-20T10:28:25;6.10;38.90
480;DHT22;226;48.606;9.096;2023-12-20T10:30:55;6.10;38.40
480;DHT22;226;48.606;9.096;2023-12-20T10:33:30;5.40;32.10
480;DHT22;226;48.606;9.096;2023-12-20T10:38:37;5.40;32.00
480;DHT22;226;48.606;9.096;2023-12-20T10:41:09;5.40;33.20
480;DHT22;226;48.606;9.096;2023-12-20T10:43:38;5.70;32.20
480;DHT22;226;48.606;9.096;2023-12-20T10:46:07;5.40;34.10
480;DHT22;226;48.606;9.096;2023-12-20T10:48:36;5.40;32.60
480;DHT22;226;48.606;9.096;2023-12-20T10:51:05;5.90;29.30
480;DHT22;226;48.606;9.096;2023-12-20T10:53:36;5.90;26.90
480;DHT22;226;48.606;9.096;2023-12-20T10:56:08;6.90;28.60
480;DHT22;226;48.606;9.096;2023-12-20T10:58:42;5.50;29.20
480;DHT22;226;48.606;9.096;2023-12-20T11:01:12;6.20;28.90
480;DHT22;226;48.606;9.096;2023-12-20T11:03:46;6.60;27.10
480;DHT22;226;48.606;9.096;2023-12-20T11:06:27;6.20;23.70
480;DHT22;226;48.606;9.096;2023-12-20T11:09:08;6.30;25.60
480;DHT22;226;48.606;9.096;2023-12-20T11:12:01;7.70;26.80
480;DHT22;226;48.606;9.096;2023-12-20T11:14:41;6.40;25.70
480;DHT22;226;48.606;9.096;2023-12-20T11:17:11;6.40;25.30
480;DHT22;226;48.606;9.096;2023-12-20T11:20:04;5.90;22.80
480;DHT22;226;48.606;9.096;2023-12-20T11:22:34;6.40;24.00
480;DHT22;226;48.606;9.096;2023-12-20T11:25:10;6.20;27.50
480;DHT22;226;48.606;9.096;2023-12-20T11:27:41;6.40;25.10
480;DHT22;226;48.606;9.096;2023-12-20T11:30:14;6.10;24.90
480;DHT22;226;48.606;9.096;2023-12-20T11:32:46;6.70;27.20
480;DHT22;226;48.606;9.096;2023-12-20T11:35:18;6.00;24.90
480;DHT22;226;48.606;9.096;2023-12-20T11:37:48;6.70;26.10
480;DHT22;226;48.606;9.096;2023-12-20T11:40:18;6.30;24.20
480;DHT22;226;48.606;9.096;2023-12-20T11:42:50;5.90;22.90
480;DHT22;226;48.606;9.096;2023-12-20T11:45:21;6.40;24.60
480;DHT22;226;48.606;9.096;2023-12-20T11:47:51;6.80;23.50
480;DHT22;226;48.606;9.096;2023-12-20T11:50:22;6.10;23.00
480;DHT22;226;48.606;9.096;2023-12-20T11:52:52;6.20;23.60
480;DHT22;226;48.606;9.096;2023-12-20T11:55:21;6.00;22.90
480;DHT22;226;48.606;9.096;2023-12-20T11:57:51;6.60;24.30
480;DHT22;226;48.606;9.096;2023-12-20T12:00:19;6.20;24.30
480;DHT22;226;48.606;9.096;2023-12-20T12:02:58;6.30;23.60
480;DHT22;226;48.606;9.096;2023-12-20T12:05:27;7.40;24.40
480;DHT22;226;48.606;9.096;2023-12-20T12:07:56;6.40;22.70
480;DHT22;226;48.606;9.096;2023-12-20T12:10:25;6.00;23.20
480;DHT22;226;48.606;9.096;2023-12-20T12:12:54;5.90;24.70
480;DHT22;226;48.606;9.096;2023-12-20T12:15:22;5.90;24.00
480;DHT22;226;48.606;9.096;2023-12-20T12:17:54;6.10;25.30
480;DHT22;226;48.606;9.096;2023-12-20T12:20:23;5.90;24.90
480;DHT22;226;48.606;9.096;2023-12-20T12:22:58;5.90;24.80
480;DHT22;226;48.606;9.096;2023-12-20T12:25:29;6.20;26.20
480;DHT22;226;48.606;9.096;2023-12-20T12:27:58;6.30;26.20
480;DHT22;226;48.606;9.096;2023-12-20T12:30:27;6.20;25.50
480;DHT22;226;48.606;9.096;2023-12-20T12:33:05;5.90;25.40
480;DHT22;226;48.606;9.096;2023-12-20T12:35:34;6.00;26.50
480;DHT22;226;48.606;9.096;2023-12-20T12:38:02;6.10;28.00
480;DHT22;226;48.606;9.096;2023-12-20T12:40:35;5.70;24.90
480;DHT22;226;48.606;9.096;2023-12-20T12:43:04;6.00;26.30
480;DHT22;226;48.606;9.096;2023-12-20T12:45:33;6.10;25.70
480;DHT22;226;48.606;9.096;2023-12-20T12:48:02;6.10;25.00
480;DHT22;226;48.606;9.096;2023-12-20T12:50:30;6.40;25.80
480;DHT22;226;48.606;9.096;2023-12-20T12:52:59;6.70;25.10
480;DHT22;226;48.606;9.096;2023-12-20T12:55:27;6.30;24.60
480;DHT22;226;48.606;9.096;2023-12-20T12:57:57;6.50;26.10
480;DHT22;226;48.606;9.096;2023-12-20T13:00:25;6.20;24.00
480;DHT22;226;48.606;9.096;2023-12-20T13:02:53;7.20;26.10
480;DHT22;226;48.606;9.096;2023-12-20T13:05:21;6.80;25.40
480;DHT22;226;48.606;9.096;2023-12-20T13:07:50;6.30;25.50
480;DHT22;226;48.606;9.096;2023-12-20T13:10:18;7.00;26.00
480;DHT22;226;48.606;9.096;2023-12-20T13:12:47;7.00;25.40
480;DHT22;226;48.606;9.096;2023-12-20T13:15:16;6.90;24.50
480;DHT22;226;48.606;9.096;2023-12-20T13:17:46;7.40;25.20
480;DHT22;226;48.606;9.096;2023-12-20T13:20:15;6.30;25.10
480;DHT22;226;48.606;9.096;2023-12-20T13:22:43;6.30;25.40
480;DHT22;226;48.606;9.096;2023-12-20T13:25:12;6.40;24.20
480;DHT22;226;48.606;9.096;2023-12-20T13:27:41;6.40;24.30
480;DHT22;226;48.606;9.096;2023-12-20T13:30:11;6.90;25.20
480;DHT22;226;48.606;9.096;2023-12-20T13:32:41;6.30;24.30
480;DHT22;226;48.606;9.096;2023-12-20T13:35:09;6.30;23.80
480;DHT22;226;48.606;9.096;2023-12-20T13:37:38;6.60;24.20
480;DHT22;226;48.606;9.096;2023-12-20T13:40:08;6.70;25.10
480;DHT22;226;48.606;9.096;2023-12-20T13:42:36;6.20;23.80
480;DHT22;226;48.606;9.096;2023-12-20T13:45:06;6.20;24.30
480;DHT22;226;48.606;9.096;2023-12-20T13:47:35;6.20;23.40
480;DHT22;226;48.606;9.096;2023-12-20T13:50:06;6.20;21.80
480;DHT22;226;48.606;9.096;2023-12-20T13:52:35;6.30;23.20
480;DHT22;226;48.606;9.096;2023-12-20T13:55:06;6.40;24.50
480;DHT22;226;48.606;9.096;2023-12-20T13:57:35;6.30;23.10
480;DHT22;226;48.606;9.096;2023-12-20T14:00:21;6.40;24.00
480;DHT22;226;48.606;9.096;2023-12-20T14:02:50;6.90;20.90
480;DHT22;226;48.606;9.096;2023-12-20T14:05:20;6.00;20.30
480;DHT22;226;48.606;9.096;2023-12-20T14:07:55;6.00;20.50
480;DHT22;226;48.606;9.096;2023-12-20T14:10:25;6.10;21.60
480;DHT22;226;48.606;9.096;2023-12-20T14:12:54;6.60;22.40
480;DHT22;226;48.606;9.096;2023-12-20T14:15:23;6.20;22.80
480;DHT22;226;48.606;9.096;2023-12-20T14:17:52;6.10;20.60
480;DHT22;226;48.606;9.096;2023-12-20T14:20:23;5.50;22.60
480;DHT22;226;48.606;9.096;2023-12-20T14:22:51;6.20;22.30
480;DHT22;226;48.606;9.096;2023-12-20T14:25:19;6.60;24.80
480;DHT22;226;48.606;9.096;2023-12-20T14:27:50;5.80;23.70
480;DHT22;226;48.606;9.096;2023-12-20T14:30:19;5.90;26.20
480;DHT22;226;48.606;9.096;2023-12-20T14:32:47;5.90;27.20
480;DHT22;226;48.606;9.096;2023-12-20T14:35:15;5.80;26.80
480;DHT22;226;48.606;9.096;2023-12-20T14:37:45;6.30;28.90
480;DHT22;226;48.606;9.096;2023-12-20T14:40:14;6.00;29.00
480;DHT22;226;48.606;9.096;2023-12-20T14:42:45;5.90;28.80
480;DHT22;226;48.606;9.096;2023-12-20T14:45:14;5.70;27.70
480;DHT22;226;48.606;9.096;2023-12-20T14:47:43;5.70;27.60
480;DHT22;226;48.606;9.096;2023-12-20T14:50:12;5.80;30.50
480;DHT22;226;48.606;9.096;2023-12-20T14:52:47;5.60;30.40
480;DHT22;226;48.606;9.096;2023-12-20T14:55:15;5.60;32.60
480;DHT22;226;48.606;9.096;2023-12-20T14:57:44;5.60;33.80
480;DHT22;226;48.606;9.096;2023-12-20T15:00:13;5.10;35.50
480;DHT22;226;48.606;9.096;2023-12-20T15:02:43;5.80;34.30
480;DHT22;226;48.606;9.096;2023-12-20T15:05:12;5.50;34.40
480;DHT22;226;48.606;9.096;2023-12-20T15:07:41;5.40;31.70
480;DHT22;226;48.606;9.096;2023-12-20T15:10:11;5.40;35.10
480;DHT22;226;48.606;9.096;2023-12-20T15:12:39;5.00;34.70
480;DHT22;226;48.606;9.096;2023-12-20T15:15:08;5.20;38.20
480;DHT22;226;48.606;9.096;2023-12-20T15:17:37;5.10;37.00
480;DHT22;226;48.606;9.096;2023-12-20T15:20:06;5.30;40.80
480;DHT22;226;48.606;9.096;2023-12-20T15:22:36;4.90;38.40
480;DHT22;226;48.606;9.096;2023-12-20T15:25:05;5.80;43.20
480;DHT22;226;48.606;9.096;2023-12-20T15:27:36;5.30;38.50
480;DHT22;226;48.606;9.096;2023-12-20T15:30:06;5.40;39.90
480;DHT22;226;48.606;9.096;2023-12-20T15:32:36;5.30;42.10
480;DHT22;226;48.606;9.096;2023-12-20T15:35:06;5.40;40.80
480;DHT22;226;48.606;9.096;2023-12-20T15:37:37;5.20;41.60
480;DHT22;226;48.606;9.096;2023-12-20T15:40:07;5.20;44.60
480;DHT22;226;48.606;9.096;2023-12-20T15:42:39;5.30;45.60
480;DHT22;226;48.606;9.096;2023-12-20T15:45:08;5.20;43.00
480;DHT22;226;48.606;9.096;2023-12-20T15:47:36;5.30;42.30
480;DHT22;226;48.606;9.096;2023-12-20T15:50:06;7.80;45.90
480;DHT22;226;48.606;9.096;2023-12-20T15:52:35;5.30;42.90
480;DHT22;226;48.606;9.096;2023-12-20T15:55:05;5.40;43.30
480;DHT22;226;48.606;9.096;2023-12-20T15:57:34;5.40;40.90
480;DHT22;226;48.606;9.096;2023-12-20T16:00:19;6.40;41.10
480;DHT22;226;48.606;9.096;2023-12-20T16:02:47;5.30;38.40
480;DHT22;226;48.606;9.096;2023-12-20T16:05:17;5.80;42.10
480;DHT22;226;48.606;9.096;2023-12-20T16:07:45;5.40;38.40
480;DHT22;226;48.606;9.096;2023-12-20T16:10:14;6.90;41.70
480;DHT22;226;48.606;9.096;2023-12-20T16:15:11;5.50;37.50
480;DHT22;226;48.606;9.096;2023-12-20T16:17:40;5.50;34.90
480;DHT22;226;48.606;9.096;2023-12-20T16:20:09;3.40;36.10
480;DHT22;226;48.606;9.096;2023-12-20T16:22:38;5.40;39.30
480;DHT22;226;48.606;9.096;2023-12-20T16:27:41;5.40;35.10
480;DHT22;226;48.606;9.096;2023-12-20T16:30:13;5.40;37.00
480;DHT22;226;48.606;9.096;2023-12-20T16:32:43;5.40;38.80
480;DHT22;226;48.606;9.096;2023-12-20T16:35:11;5.60;36.50
480;DHT22;226;48.606;9.096;2023-12-20T16:37:39;5.80;37.10
480;DHT22;226;48.606;9.096;2023-12-20T16:40:08;5.40;36.50
480;DHT22;226;48.606;9.096;2023-12-20T16:42:36;5.30;36.00
480;DHT22;226;48.606;9.096;2023-12-20T16:45:05;5.40;38.50
480;DHT22;226;48.606;9.096;2023-12-20T16:47:34;5.20;39.90
480;DHT22;226;48.606;9.096;2023-12-20T16:50:05;5.50;41.00
480;DHT22;226;48.606;9.096;2023-12-20T16:52:34;5.20;40.10
480;DHT22;226;48.606;9.096;2023-12-20T16:55:04;5.30;42.00
480;DHT22;226;48.606;9.096;2023-12-20T16:57:33;5.30;41.80
480;DHT22;226;48.606;9.096;2023-12-20T17:00:03;5.40;40.10
480;DHT22;226;48.606;9.096;2023-12-20T17:02:32;5.40;38.20
480;DHT22;226;48.606;9.096;2023-12-20T17:05:00;5.30;38.20
480;DHT22;226;48.606;9.096;2023-12-20T17:07:30;5.20;40.80
480;DHT22;226;48.606;9.096;2023-12-20T17:09:58;5.60;40.40
480;DHT22;226;48.606;9.096;2023-12-20T17:12:26;5.30;41.00
480;DHT22;226;48.606;9.096;2023-12-20T17:14:54;5.20;39.70